Time;durP1;ratioP1;P1;durP2;ratioP2;P2;SDS_P1;SDS_P2;PMS_P1;PMS_P2;Temp;Humidity;BMP_temperature;BMP_pressure;BME280_temperature;BME280_humidity;BME280_pressure;Samples;Min_cycle;Max_cycle;Signal;HPM_P1;HPM_P2
2021/08/26 00:07:23;;;;;;;5.82;4.05;;;;;;;;;;5073619;28;20035;-43
2021/08/26 00:09:49;;;;;;;9.48;2.90;;;;;;;;;;5070593;28;20016;-43
2021/08/26 00:12:14;;;;;;;3.45;2.63;;;;;;;;;;5082636;28;20463;-41
2021/08/26 00:14:40;;;;;;;5.38;3.42;;;;;;;;;;5073662;28;20131;-42
2021/08/26 00:17:05;;;;;;;3.92;2.38;;;;;;;;;;5072705;28;20699;-40
2021/08/26 00:19:31;;;;;;;4.80;3.47;;;;;;;;;;5075802;28;20017;-37
2021/08/26 00:21:56;;;;;;;3.33;2.90;;;;;;;;;;5074415;28;20124;-36
2021/08/26 00:24:21;;;;;;;3.10;2.20;;;;;;;;;;5070744;28;20024;-37
2021/08/26 00:26:46;;;;;;;10.02;2.88;;;;;;;;;;5076702;28;20082;-37
2021/08/26 00:29:12;;;;;;;3.13;2.40;;;;;;;;;;5074988;28;20051;-38
2021/08/26 00:31:37;;;;;;;5.22;3.55;;;;;;;;;;5072860;28;20395;-37
2021/08/26 00:34:02;;;;;;;7.18;2.40;;;;;;;;;;5074074;28;20066;-37
2021/08/26 00:36:28;;;;;;;5.38;3.03;;;;;;;;;;5074765;28;20073;-42
2021/08/26 00:38:53;;;;;;;3.22;2.50;;;;;;;;;;5072534;28;20024;-42
2021/08/26 00:41:19;;;;;;;5.38;2.60;;;;;;;;;;5069574;28;20399;-42
2021/08/26 00:43:44;;;;;;;4.32;3.03;;;;;;;;;;5075384;28;20098;-44
2021/08/26 00:46:11;;;;;;;5.43;2.83;;;;;;;;;;5070170;28;20542;-43
2021/08/26 00:48:36;;;;;;;6.15;3.72;;;;;;;;;;5071602;28;20024;-40
2021/08/26 00:51:02;;;;;;;5.32;2.95;;;;;;;;;;5071031;28;20055;-39
2021/08/26 00:53:27;;;;;;;7.80;2.90;;;;;;;;;;5071303;28;20409;-42
2021/08/26 00:55:52;;;;;;;4.88;3.15;;;;;;;;;;5069848;28;20025;-40
2021/08/26 00:58:18;;;;;;;3.63;2.83;;;;;;;;;;5071655;28;20016;-39
2021/08/26 01:00:49;;;;;;;6.07;3.45;;;;;;;;;;5075470;28;20031;-40
2021/08/26 01:03:14;;;;;;;;;;;;;;;;;;5074515;28;20048;-39
2021/08/26 01:05:40;;;;;;;5.15;3.80;;;;;;;;;;5070691;28;19923;-39
2021/08/26 01:08:13;;;;;;;6.68;3.42;;;;;;;;;;5073046;28;20119;-40
2021/08/26 01:10:40;;;;;;;5.95;4.20;;;;;;;;;;5073373;28;20111;-39
2021/08/26 01:13:06;;;;;;;3.70;3.20;;;;;;;;;;5071381;28;20028;-42
2021/08/26 01:15:31;;;;;;;3.50;2.67;;;;;;;;;;5071377;28;20112;-39
2021/08/26 01:17:57;;;;;;;3.20;2.35;;;;;;;;;;5070021;28;20099;-39
2021/08/26 01:20:22;;;;;;;4.43;3.22;;;;;;;;;;5069881;28;20027;-39
2021/08/26 01:22:48;;;;;;;6.30;3.60;;;;;;;;;;5067455;28;20773;-40
2021/08/26 01:25:15;;;;;;;3.40;2.35;;;;;;;;;;5073592;28;20021;-40
2021/08/26 01:27:55;;;;;;;3.58;3.00;;;;;;;;;;5072524;28;20487;-40
2021/08/26 01:30:22;;;;;;;3.65;2.60;;;;;;;;;;5068070;28;20042;-40
2021/08/26 01:32:52;;;;;;;4.45;2.33;;;;;;;;;;5074047;28;20039;-39
2021/08/26 01:35:18;;;;;;;3.75;2.78;;;;;;;;;;5067981;28;20032;-39
2021/08/26 01:37:43;;;;;;;5.07;3.22;;;;;;;;;;5069895;28;20028;-40
2021/08/26 01:40:09;;;;;;;4.57;2.35;;;;;;;;;;5068670;28;20019;-43
2021/08/26 01:42:35;;;;;;;3.08;2.58;;;;;;;;;;5069777;28;20020;-42
2021/08/26 01:45:02;;;;;;;4.85;2.00;;;;;;;;;;5072559;28;20020;-41
2021/08/26 01:47:27;;;;;;;3.35;2.75;;;;;;;;;;5073537;28;20043;-41
2021/08/26 01:49:53;;;;;;;4.78;2.40;;;;;;;;;;5067510;28;20464;-40
2021/08/26 01:52:23;;;;;;;4.28;3.20;;;;;;;;;;5071932;28;20079;-41
2021/08/26 01:55:02;;;;;;;3.22;2.35;;;;;;;;;;5074494;28;20032;-41
2021/08/26 01:57:28;;;;;;;2.78;2.20;;;;;;;;;;5061793;28;20024;-40
2021/08/26 01:59:53;;;;;;;3.10;1.77;;;;;;;;;;5072521;28;20032;-41
2021/08/26 02:02:19;;;;;;;2.65;2.08;;;;;;;;;;5075584;28;20070;-40
2021/08/26 02:04:44;;;;;;;4.15;3.10;;;;;;;;;;5072838;28;20075;-40
2021/08/26 02:07:10;;;;;;;3.35;1.73;;;;;;;;;;5071839;28;20024;-41
2021/08/26 02:09:35;;;;;;;2.22;1.98;;;;;;;;;;5067809;28;20066;-40
2021/08/26 02:12:01;;;;;;;3.67;2.50;;;;;;;;;;5070803;28;20012;-41
2021/08/26 02:14:27;;;;;;;6.85;2.65;;;;;;;;;;5070896;28;20113;-41
2021/08/26 02:16:52;;;;;;;5.50;3.40;;;;;;;;;;5073723;28;20035;-40
2021/08/26 02:19:17;;;;;;;3.35;2.42;;;;;;;;;;5071587;28;20096;-40
2021/08/26 02:21:43;;;;;;;4.03;3.25;;;;;;;;;;5072121;28;20027;-43
2021/08/26 02:24:08;;;;;;;6.18;2.45;;;;;;;;;;5068374;28;20024;-46
2021/08/26 02:26:33;;;;;;;3.58;2.65;;;;;;;;;;5067257;28;20036;-43
2021/08/26 02:28:59;;;;;;;6.20;3.53;;;;;;;;;;5074129;28;20059;-43
2021/08/26 02:31:24;;;;;;;5.47;3.00;;;;;;;;;;5071720;28;20078;-43
2021/08/26 02:33:49;;;;;;;5.00;2.30;;;;;;;;;;5070531;28;20048;-44
2021/08/26 02:36:15;;;;;;;8.85;3.80;;;;;;;;;;5071239;28;20105;-44
2021/08/26 02:38:40;;;;;;;3.70;2.90;;;;;;;;;;5068068;28;20024;-44
2021/08/26 02:41:06;;;;;;;4.32;2.45;;;;;;;;;;5071223;28;20105;-40
2021/08/26 02:43:31;;;;;;;4.10;2.20;;;;;;;;;;5069186;28;20399;-39
2021/08/26 02:45:56;;;;;;;3.10;2.63;;;;;;;;;;5066612;28;20019;-39
2021/08/26 02:48:22;;;;;;;2.75;2.28;;;;;;;;;;5065954;28;20789;-41
2021/08/26 02:50:47;;;;;;;3.88;2.95;;;;;;;;;;5073012;28;20174;-39
2021/08/26 02:53:12;;;;;;;5.30;3.22;;;;;;;;;;5071688;28;20570;-42
2021/08/26 02:55:37;;;;;;;5.03;3.03;;;;;;;;;;5068738;28;20123;-42
2021/08/26 02:58:03;;;;;;;3.30;2.35;;;;;;;;;;5070924;28;20028;-41
2021/08/26 03:00:28;;;;;;;11.75;3.15;;;;;;;;;;5069562;28;20078;-41
2021/08/26 03:02:54;;;;;;;6.75;2.40;;;;;;;;;;5068870;28;20023;-38
2021/08/26 03:05:19;;;;;;;3.20;2.30;;;;;;;;;;5068569;28;20043;-38
2021/08/26 03:07:44;;;;;;;4.03;3.05;;;;;;;;;;5068294;28;20612;-37
2021/08/26 03:10:10;;;;;;;3.72;2.75;;;;;;;;;;5068679;28;20039;-38
2021/08/26 03:12:35;;;;;;;5.22;2.45;;;;;;;;;;5070668;28;20040;-38
2021/08/26 03:15:00;;;;;;;4.90;2.38;;;;;;;;;;5071236;28;20032;-39
2021/08/26 03:17:26;;;;;;;3.67;3.00;;;;;;;;;;5064406;28;20112;-40
2021/08/26 03:19:51;;;;;;;6.88;2.75;;;;;;;;;;5072686;28;20024;-38
2021/08/26 03:22:16;;;;;;;5.35;2.60;;;;;;;;;;5073132;28;20044;-38
2021/08/26 03:24:42;;;;;;;5.55;2.80;;;;;;;;;;5077700;28;20052;-38
2021/08/26 03:27:07;;;;;;;7.97;3.38;;;;;;;;;;5077325;28;20107;-38
2021/08/26 03:29:32;;;;;;;8.20;3.00;;;;;;;;;;5072181;28;20026;-38
2021/08/26 03:31:58;;;;;;;3.58;2.45;;;;;;;;;;5071744;28;20119;-39
2021/08/26 03:34:23;;;;;;;2.80;2.33;;;;;;;;;;5074659;28;20031;-38
2021/08/26 03:36:48;;;;;;;4.35;2.75;;;;;;;;;;5075380;28;20047;-39
2021/08/26 03:39:14;;;;;;;3.80;2.97;;;;;;;;;;5072723;28;20132;-38
2021/08/26 03:41:39;;;;;;;3.35;2.17;;;;;;;;;;5072396;28;20161;-38
2021/08/26 03:44:04;;;;;;;4.18;2.83;;;;;;;;;;5072321;28;20059;-38
2021/08/26 03:46:30;;;;;;;4.90;3.97;;;;;;;;;;5065238;28;20424;-37
2021/08/26 03:48:56;;;;;;;3.40;2.63;;;;;;;;;;5073336;28;20481;-40
2021/08/26 03:51:21;;;;;;;3.28;2.17;;;;;;;;;;5074790;28;20027;-40
2021/08/26 03:53:46;;;;;;;6.50;3.20;;;;;;;;;;5074662;28;20044;-39
2021/08/26 03:56:12;;;;;;;8.20;3.25;;;;;;;;;;5069728;28;20511;-39
2021/08/26 03:58:37;;;;;;;4.13;2.65;;;;;;;;;;5080100;28;20028;-42
2021/08/26 04:01:03;;;;;;;3.42;2.38;;;;;;;;;;5074950;28;20576;-43
2021/08/26 04:03:28;;;;;;;3.95;3.13;;;;;;;;;;5073176;28;20136;-42
2021/08/26 04:05:54;;;;;;;4.60;3.28;;;;;;;;;;5078086;28;20051;-41
2021/08/26 04:08:19;;;;;;;6.75;4.20;;;;;;;;;;5074389;28;20102;-42
2021/08/26 04:10:44;;;;;;;3.63;2.28;;;;;;;;;;5074324;28;20116;-41
2021/08/26 04:13:10;;;;;;;3.45;2.60;;;;;;;;;;5069355;28;20490;-43
2021/08/26 04:15:38;;;;;;;2.95;2.20;;;;;;;;;;5075081;28;20788;-41
2021/08/26 04:18:03;;;;;;;7.25;3.75;;;;;;;;;;5069675;28;20738;-41
2021/08/26 04:20:28;;;;;;;4.20;2.90;;;;;;;;;;5075518;28;20119;-44
2021/08/26 04:22:54;;;;;;;3.70;2.15;;;;;;;;;;5074317;28;20025;-43
2021/08/26 04:25:19;;;;;;;3.17;2.63;;;;;;;;;;5072689;28;20024;-41
2021/08/26 04:27:44;;;;;;;6.93;3.42;;;;;;;;;;5073762;28;20032;-42
2021/08/26 04:30:10;;;;;;;4.80;2.97;;;;;;;;;;5074512;28;20434;-37
2021/08/26 04:32:35;;;;;;;4.50;2.88;;;;;;;;;;5072210;28;20653;-38
2021/08/26 04:35:00;;;;;;;4.15;3.15;;;;;;;;;;5073399;28;20024;-37
2021/08/26 04:37:26;;;;;;;8.27;2.88;;;;;;;;;;5075861;28;20058;-39
2021/08/26 04:39:52;;;;;;;56.88;9.90;;;;;;;;;;5070964;28;20056;-39
2021/08/26 04:42:17;;;;;;;7.72;3.85;;;;;;;;;;5074844;28;20093;-39
2021/08/26 04:44:42;;;;;;;5.40;3.90;;;;;;;;;;5074409;28;20019;-40
2021/08/26 04:47:08;;;;;;;6.30;2.97;;;;;;;;;;5072730;28;20067;-38
2021/08/26 04:49:33;;;;;;;6.20;3.22;;;;;;;;;;5072279;28;20384;-38
2021/08/26 04:51:58;;;;;;;5.32;3.47;;;;;;;;;;5074565;28;20115;-38
2021/08/26 04:54:24;;;;;;;5.43;3.60;;;;;;;;;;5074820;28;20059;-41
2021/08/26 04:56:49;;;;;;;13.80;3.65;;;;;;;;;;5069457;28;20031;-40
2021/08/26 04:59:14;;;;;;;8.68;3.50;;;;;;;;;;5076107;28;20028;-42
2021/08/26 05:01:40;;;;;;;7.55;4.03;;;;;;;;;;5071533;28;20032;-42
2021/08/26 05:04:06;;;;;;;9.80;3.30;;;;;;;;;;5071089;28;20226;-40
2021/08/26 05:06:31;;;;;;;8.93;3.80;;;;;;;;;;5073896;28;20097;-39
2021/08/26 05:08:56;;;;;;;4.90;2.95;;;;;;;;;;5074188;28;20495;-41
2021/08/26 05:11:22;;;;;;;5.05;3.50;;;;;;;;;;5070333;28;20099;-40
2021/08/26 05:13:47;;;;;;;5.40;3.42;;;;;;;;;;5072692;28;20387;-38
2021/08/26 05:16:13;;;;;;;5.65;3.67;;;;;;;;;;5070144;28;20039;-39
2021/08/26 05:18:38;;;;;;;25.15;3.42;;;;;;;;;;5072731;28;20078;-38
2021/08/26 05:21:03;;;;;;;5.40;3.05;;;;;;;;;;5068034;28;20074;-38
2021/08/26 05:23:29;;;;;;;6.80;3.40;;;;;;;;;;5074248;28;20103;-39
2021/08/26 05:25:55;;;;;;;6.82;4.50;;;;;;;;;;5067532;28;20543;-37
2021/08/26 05:28:20;;;;;;;7.85;3.30;;;;;;;;;;5072659;28;20028;-37
2021/08/26 05:30:45;;;;;;;3.75;2.78;;;;;;;;;;5064537;28;20389;-38
2021/08/26 05:33:10;;;;;;;8.90;4.50;;;;;;;;;;5066418;28;20031;-37
2021/08/26 05:35:36;;;;;;;3.47;2.83;;;;;;;;;;5072458;28;20025;-38
2021/08/26 05:38:01;;;;;;;4.93;3.67;;;;;;;;;;5068887;28;20439;-39
2021/08/26 05:40:26;;;;;;;6.13;4.57;;;;;;;;;;5072010;28;20563;-38
2021/08/26 05:42:52;;;;;;;4.45;3.83;;;;;;;;;;5077416;28;20134;-37
2021/08/26 05:45:17;;;;;;;7.35;4.68;;;;;;;;;;5070330;28;20027;-37
2021/08/26 05:47:42;;;;;;;7.03;4.13;;;;;;;;;;5071222;28;20036;-38
2021/08/26 05:50:08;;;;;;;12.48;3.30;;;;;;;;;;5072951;28;20025;-40
2021/08/26 05:52:33;;;;;;;4.13;2.97;;;;;;;;;;5072669;28;20016;-38
2021/08/26 05:54:58;;;;;;;5.10;3.25;;;;;;;;;;5076240;28;20020;-37
2021/08/26 05:57:24;;;;;;;4.93;3.40;;;;;;;;;;5072033;28;20017;-37
2021/08/26 05:59:49;;;;;;;7.10;5.03;;;;;;;;;;5072187;28;20031;-37
2021/08/26 06:02:14;;;;;;;5.07;4.03;;;;;;;;;;5071232;28;20024;-38
2021/08/26 06:04:40;;;;;;;4.88;3.72;;;;;;;;;;5083232;28;20053;-37
2021/08/26 06:07:05;;;;;;;8.55;4.30;;;;;;;;;;5073009;28;20036;-37
2021/08/26 06:09:30;;;;;;;4.55;3.00;;;;;;;;;;5068715;28;20140;-37
2021/08/26 06:11:55;;;;;;;6.43;3.10;;;;;;;;;;5069946;28;20115;-37
2021/08/26 06:14:21;;;;;;;8.15;3.72;;;;;;;;;;5071690;28;20032;-37
2021/08/26 06:16:46;;;;;;;9.88;4.68;;;;;;;;;;5072162;28;20113;-38
2021/08/26 06:19:11;;;;;;;10.25;4.65;;;;;;;;;;5070855;28;20485;-40
2021/08/26 06:21:37;;;;;;;3.15;2.85;;;;;;;;;;5067192;28;20028;-37
2021/08/26 06:24:06;;;;;;;5.25;4.70;;;;;;;;;;5072281;28;20052;-37
2021/08/26 06:26:31;;;;;;;5.93;3.25;;;;;;;;;;5072081;28;20059;-38
2021/08/26 06:28:56;;;;;;;5.28;4.07;;;;;;;;;;5069632;28;20056;-37
2021/08/26 06:31:22;;;;;;;6.97;6.30;;;;;;;;;;5072210;28;20578;-36
2021/08/26 06:33:47;;;;;;;5.90;4.78;;;;;;;;;;5071237;28;20028;-38
2021/08/26 06:36:12;;;;;;;10.18;4.93;;;;;;;;;;5074853;28;20035;-37
2021/08/26 06:38:38;;;;;;;8.50;4.20;;;;;;;;;;5073236;28;20025;-39
2021/08/26 06:41:03;;;;;;;10.13;4.10;;;;;;;;;;5074347;28;20020;-37
2021/08/26 06:43:28;;;;;;;5.20;4.72;;;;;;;;;;5074047;28;20017;-37
2021/08/26 06:45:54;;;;;;;10.48;5.70;;;;;;;;;;5072794;28;20048;-37
2021/08/26 06:48:19;;;;;;;127.47;114.53;;;;;;;;;;5094185;28;20515;-39
2021/08/26 06:50:44;;;;;;;7.53;5.82;;;;;;;;;;5073591;28;20028;-38
2021/08/26 06:53:10;;;;;;;5.55;4.95;;;;;;;;;;5073448;28;20438;-37
2021/08/26 06:55:35;;;;;;;6.03;5.25;;;;;;;;;;5073132;28;20094;-37
2021/08/26 06:58:00;;;;;;;6.78;4.55;;;;;;;;;;5074380;28;20020;-37
2021/08/26 07:00:26;;;;;;;5.20;4.70;;;;;;;;;;5072806;28;20020;-37
2021/08/26 07:02:52;;;;;;;10.30;5.75;;;;;;;;;;5074385;28;20020;-38
2021/08/26 07:05:17;;;;;;;5.97;4.90;;;;;;;;;;5075034;28;20052;-38
2021/08/26 07:07:43;;;;;;;12.07;4.85;;;;;;;;;;5072619;28;20074;-40
2021/08/26 07:10:08;;;;;;;12.05;5.95;;;;;;;;;;5072163;28;20393;-38
2021/08/26 07:12:33;;;;;;;8.27;4.70;;;;;;;;;;5078682;28;20051;-38
2021/08/26 07:14:59;;;;;;;5.55;4.93;;;;;;;;;;5074347;28;20046;-45
2021/08/26 07:17:24;;;;;;;4.95;4.18;;;;;;;;;;5067326;28;20027;-39
2021/08/26 07:19:50;;;;;;;5.45;3.78;;;;;;;;;;5067414;28;20036;-38
2021/08/26 07:22:15;;;;;;;6.88;4.85;;;;;;;;;;5073316;28;20039;-38
2021/08/26 07:24:40;;;;;;;6.53;4.38;;;;;;;;;;5071420;28;20523;-38
2021/08/26 07:27:06;;;;;;;5.13;4.15;;;;;;;;;;5072320;28;20535;-38
2021/08/26 07:29:31;;;;;;;9.25;5.85;;;;;;;;;;5075496;28;20071;-38
2021/08/26 07:31:57;;;;;;;7.78;5.63;;;;;;;;;;5067727;28;20024;-38
2021/08/26 07:34:22;;;;;;;5.80;4.68;;;;;;;;;;5071304;28;20020;-38
2021/08/26 07:36:47;;;;;;;7.40;5.82;;;;;;;;;;5074554;28;20028;-39
2021/08/26 07:39:12;;;;;;;10.43;6.82;;;;;;;;;;5071036;28;20021;-39
2021/08/26 07:41:38;;;;;;;8.63;7.72;;;;;;;;;;5070314;28;20103;-38
2021/08/26 07:44:03;;;;;;;10.10;9.10;;;;;;;;;;5073066;28;20063;-38
2021/08/26 07:46:29;;;;;;;16.42;8.93;;;;;;;;;;5072518;28;20033;-38
2021/08/26 07:48:54;;;;;;;9.35;8.32;;;;;;;;;;5069938;28;20020;-37
2021/08/26 07:51:19;;;;;;;13.98;10.82;;;;;;;;;;5072337;28;20024;-38
2021/08/26 07:53:44;;;;;;;15.35;5.50;;;;;;;;;;5071952;28;20048;-40
2021/08/26 07:56:10;;;;;;;8.77;7.85;;;;;;;;;;5074746;28;20021;-38
2021/08/26 07:58:35;;;;;;;14.00;5.50;;;;;;;;;;5071984;28;20040;-39
2021/08/26 08:01:01;;;;;;;6.97;5.82;;;;;;;;;;5072456;28;20040;-39
2021/08/26 08:03:27;;;;;;;6.50;5.22;;;;;;;;;;5075605;28;20060;-38
2021/08/26 08:05:52;;;;;;;10.27;4.45;;;;;;;;;;5070133;28;20499;-43
2021/08/26 08:08:18;;;;;;;6.07;4.47;;;;;;;;;;5072874;28;20028;-42
2021/08/26 08:10:43;;;;;;;5.93;4.90;;;;;;;;;;5075381;28;20056;-38
2021/08/26 08:13:08;;;;;;;8.85;3.20;;;;;;;;;;5075465;28;20030;-43
2021/08/26 08:15:34;;;;;;;6.20;3.05;;;;;;;;;;5075768;28;20551;-41
2021/08/26 08:17:59;;;;;;;7.07;2.92;;;;;;;;;;5076421;28;20031;-38
2021/08/26 08:20:24;;;;;;;5.65;2.80;;;;;;;;;;5067802;28;20524;-38
2021/08/26 08:22:49;;;;;;;4.90;3.30;;;;;;;;;;5074351;28;20071;-38
2021/08/26 08:25:15;;;;;;;10.70;4.13;;;;;;;;;;5078343;28;20471;-39
2021/08/26 08:27:40;;;;;;;5.15;2.38;;;;;;;;;;5074328;28;20763;-38
2021/08/26 08:30:06;;;;;;;6.15;2.60;;;;;;;;;;5077664;28;20092;-38
2021/08/26 08:32:32;;;;;;;7.97;4.07;;;;;;;;;;5077605;28;20024;-39
2021/08/26 08:34:57;;;;;;;4.60;3.75;;;;;;;;;;5077315;28;20751;-38
2021/08/26 08:37:22;;;;;;;9.15;3.33;;;;;;;;;;5073149;28;20496;-38
2021/08/26 08:39:48;;;;;;;4.40;3.05;;;;;;;;;;5075003;28;20078;-38
2021/08/26 08:42:13;;;;;;;4.55;3.40;;;;;;;;;;5074259;28;20044;-38
2021/08/26 08:44:38;;;;;;;6.63;2.92;;;;;;;;;;5076869;28;20396;-38
2021/08/26 08:47:04;;;;;;;5.22;4.03;;;;;;;;;;5075564;28;20056;-39
2021/08/26 08:49:29;;;;;;;3.95;2.58;;;;;;;;;;5071836;28;20398;-38
2021/08/26 08:51:55;;;;;;;12.70;4.15;;;;;;;;;;5078028;28;20101;-38
2021/08/26 08:54:22;;;;;;;7.40;6.68;;;;;;;;;;5075610;28;20108;-37
2021/08/26 08:56:47;;;;;;;6.30;4.45;;;;;;;;;;5069331;28;20017;-36
2021/08/26 08:59:13;;;;;;;4.78;3.22;;;;;;;;;;5075349;28;20025;-36
2021/08/26 09:01:38;;;;;;;8.18;4.03;;;;;;;;;;5075812;28;20096;-37
2021/08/26 09:04:06;;;;;;;5.55;3.42;;;;;;;;;;5074936;28;20151;-39
2021/08/26 09:06:38;;;;;;;5.07;4.45;;;;;;;;;;5077689;28;20069;-39
2021/08/26 09:09:04;;;;;;;2.95;2.65;;;;;;;;;;5078274;28;20012;-38
2021/08/26 09:11:29;;;;;;;5.43;3.00;;;;;;;;;;5073649;28;20073;-39
2021/08/26 09:13:55;;;;;;;7.45;3.65;;;;;;;;;;5077284;28;20241;-39
2021/08/26 09:16:40;;;;;;;5.32;4.13;;;;;;;;;;5074712;28;20391;-38
2021/08/26 09:19:29;;;;;;;4.10;2.83;;;;;;;;;;5071006;28;20303;-39
2021/08/26 09:21:54;;;;;;;3.70;3.15;;;;;;;;;;5077523;28;20499;-39
2021/08/26 09:24:20;;;;;;;5.95;3.38;;;;;;;;;;5075774;28;20036;-39
2021/08/26 09:26:51;;;;;;;6.43;2.85;;;;;;;;;;5068607;28;20498;-39
2021/08/26 09:29:17;;;;;;;3.83;2.53;;;;;;;;;;5074739;28;20016;-40
2021/08/26 09:31:42;;;;;;;7.30;3.10;;;;;;;;;;5071363;28;20031;-39
2021/08/26 09:34:18;;;;;;;7.35;3.47;;;;;;;;;;5070953;28;20131;-39
2021/08/26 09:36:46;;;;;;;4.97;2.75;;;;;;;;;;5073984;28;20025;-42
2021/08/26 09:39:13;;;;;;;5.45;3.53;;;;;;;;;;5077454;28;20013;-40
2021/08/26 09:41:41;;;;;;;8.93;3.92;;;;;;;;;;5077566;28;20043;-39
2021/08/26 09:44:12;;;;;;;5.22;3.65;;;;;;;;;;5074612;28;20070;-40
2021/08/26 09:46:38;;;;;;;4.90;2.70;;;;;;;;;;5074744;28;20026;-38
2021/08/26 09:49:11;;;;;;;7.47;4.97;;;;;;;;;;5072824;28;20024;-38
2021/08/26 09:51:36;;;;;;;5.00;3.22;;;;;;;;;;5075196;28;20028;-38
2021/08/26 09:54:02;;;;;;;4.97;2.83;;;;;;;;;;5071505;28;20023;-39
2021/08/26 09:56:37;;;;;;;4.50;3.45;;;;;;;;;;5073858;28;20103;-38
2021/08/26 09:59:05;;;;;;;18.17;4.60;;;;;;;;;;5070528;28;20128;-50
2021/08/26 10:01:30;;;;;;;9.85;6.05;;;;;;;;;;5072838;28;20029;-51
2021/08/26 10:03:56;;;;;;;5.53;3.45;;;;;;;;;;5074687;28;20102;-55
2021/08/26 10:06:21;;;;;;;5.95;2.70;;;;;;;;;;5070491;28;20045;-56
2021/08/26 10:08:48;;;;;;;7.60;4.72;;;;;;;;;;5068869;28;20044;-55
2021/08/26 10:11:18;;;;;;;3.88;2.83;;;;;;;;;;5077274;28;20020;-41
2021/08/26 10:13:43;;;;;;;5.22;4.28;;;;;;;;;;5077481;28;20020;-38
2021/08/26 10:16:09;;;;;;;4.82;3.13;;;;;;;;;;5074287;28;20042;-41
2021/08/26 10:18:36;;;;;;;3.10;2.80;;;;;;;;;;5074866;28;20022;-37
2021/08/26 10:21:01;;;;;;;3.47;2.38;;;;;;;;;;5072983;28;20032;-39
2021/08/26 10:23:27;;;;;;;4.80;3.78;;;;;;;;;;5073415;28;20004;-38
2021/08/26 10:25:53;;;;;;;3.90;2.75;;;;;;;;;;5073073;28;20020;-38
2021/08/26 10:28:19;;;;;;;12.93;2.95;;;;;;;;;;5073934;28;20032;-39
2021/08/26 10:30:45;;;;;;;6.57;4.40;;;;;;;;;;5074499;28;20393;-37
2021/08/26 10:33:12;;;;;;;7.07;3.58;;;;;;;;;;5073535;28;20017;-40
2021/08/26 10:36:09;;;;;;;6.50;3.67;;;;;;;;;;5072119;28;20032;-41
2021/08/26 10:38:35;;;;;;;3.30;2.03;;;;;;;;;;5067987;28;20047;-41
2021/08/26 10:41:18;;;;;;;3.38;2.53;;;;;;;;;;5075125;28;20016;-39
2021/08/26 10:43:44;;;;;;;4.47;2.90;;;;;;;;;;5068027;28;20035;-42
2021/08/26 10:46:11;;;;;;;4.72;3.25;;;;;;;;;;5071570;28;20024;-40
2021/08/26 10:48:37;;;;;;;6.50;2.50;;;;;;;;;;5072479;28;20442;-41
2021/08/26 10:51:04;;;;;;;5.30;2.75;;;;;;;;;;5069554;28;20017;-36
2021/08/26 10:53:30;;;;;;;4.57;2.72;;;;;;;;;;5071622;28;20127;-36
2021/08/26 10:55:57;;;;;;;7.35;3.53;;;;;;;;;;5072280;28;20100;-37
2021/08/26 10:58:23;;;;;;;4.18;2.72;;;;;;;;;;5073341;28;20021;-37
2021/08/26 11:00:49;;;;;;;5.10;2.85;;;;;;;;;;5072328;28;20097;-37
2021/08/26 11:03:47;;;;;;;5.05;2.38;;;;;;;;;;5073126;28;20097;-36
2021/08/26 11:06:12;;;;;;;2.50;2.00;;;;;;;;;;5058559;28;20411;-36
2021/08/26 11:08:39;;;;;;;5.63;4.20;;;;;;;;;;5069579;28;20424;-40
2021/08/26 11:11:30;;;;;;;11.98;4.57;;;;;;;;;;5067882;28;20089;-41
2021/08/26 11:14:02;;;;;;;13.00;3.85;;;;;;;;;;5068641;28;20059;-41
2021/08/26 11:16:27;;;;;;;10.13;2.92;;;;;;;;;;5073140;28;20106;-40
2021/08/26 11:18:54;;;;;;;4.75;2.60;;;;;;;;;;5069507;28;20819;-45
2021/08/26 11:21:46;;;;;;;4.45;2.13;;;;;;;;;;5076451;28;20673;-41
2021/08/26 11:24:14;;;;;;;5.38;2.28;;;;;;;;;;5072813;28;20033;-37
2021/08/26 11:26:43;;;;;;;6.25;2.67;;;;;;;;;;5087186;28;20112;-35
2021/08/26 11:29:17;;;;;;;10.07;2.65;;;;;;;;;;5072250;28;20045;-36
2021/08/26 11:31:43;;;;;;;4.93;2.38;;;;;;;;;;5073391;28;20050;-35
2021/08/26 11:34:08;;;;;;;4.55;2.10;;;;;;;;;;5070806;28;20476;-36
2021/08/26 11:36:34;;;;;;;8.77;2.92;;;;;;;;;;5070954;28;20523;-43
2021/08/26 11:38:59;;;;;;;8.48;2.88;;;;;;;;;;5073957;28;20043;-39
2021/08/26 11:41:25;;;;;;;22.08;3.63;;;;;;;;;;5070177;28;20403;-38
2021/08/26 11:43:50;;;;;;;9.77;2.78;;;;;;;;;;5079167;28;20016;-37
2021/08/26 11:46:16;;;;;;;11.48;3.50;;;;;;;;;;5072509;28;20495;-41
2021/08/26 11:48:48;;;;;;;4.97;2.83;;;;;;;;;;5073284;28;20063;-39
2021/08/26 11:51:21;;;;;;;11.30;5.13;;;;;;;;;;5075514;28;20635;-39
2021/08/26 11:53:46;;;;;;;3.80;3.03;;;;;;;;;;5079777;28;20047;-40
2021/08/26 11:56:11;;;;;;;15.75;6.32;;;;;;;;;;5078780;28;20020;-39
2021/08/26 11:58:37;;;;;;;20.67;8.55;;;;;;;;;;5079463;28;20024;-40
2021/08/26 12:01:02;;;;;;;13.98;7.50;;;;;;;;;;5075238;28;20086;-38
2021/08/26 12:03:27;;;;;;;14.43;4.88;;;;;;;;;;5075376;28;20036;-39
2021/08/26 12:05:53;;;;;;;8.40;3.55;;;;;;;;;;5077084;28;20636;-39
2021/08/26 12:08:19;;;;;;;14.50;5.60;;;;;;;;;;5078360;28;20025;-39
2021/08/26 12:10:47;;;;;;;11.00;5.78;;;;;;;;;;5076469;28;20147;-39
2021/08/26 12:13:13;;;;;;;6.25;3.67;;;;;;;;;;5075784;28;20031;-40
2021/08/26 12:15:39;;;;;;;8.77;2.58;;;;;;;;;;5073208;28;20151;-40
2021/08/26 12:18:06;;;;;;;7.53;3.47;;;;;;;;;;5076443;28;20104;-45
2021/08/26 12:20:35;;;;;;;6.80;3.03;;;;;;;;;;5076892;28;20020;-38
2021/08/26 12:23:01;;;;;;;10.93;3.53;;;;;;;;;;5071733;28;20020;-40
2021/08/26 12:25:31;;;;;;;5.88;2.80;;;;;;;;;;5070675;28;20020;-41
2021/08/26 12:27:58;;;;;;;3.97;2.28;;;;;;;;;;5071997;28;20016;-41
2021/08/26 12:30:26;;;;;;;11.25;3.17;;;;;;;;;;5074181;28;20025;-40
2021/08/26 12:32:51;;;;;;;6.35;3.05;;;;;;;;;;5072883;28;20487;-41
2021/08/26 12:35:22;;;;;;;3.75;2.80;;;;;;;;;;5072822;28;20017;-38
2021/08/26 12:37:58;;;;;;;3.58;3.13;;;;;;;;;;5071260;28;20566;-39
2021/08/26 12:40:24;;;;;;;3.22;2.63;;;;;;;;;;5071618;28;20025;-39
2021/08/26 12:43:01;;;;;;;2.88;1.98;;;;;;;;;;5074676;28;20028;-40
2021/08/26 12:45:26;;;;;;;3.47;2.83;;;;;;;;;;5073856;28;20024;-39
2021/08/26 12:47:52;;;;;;;9.38;3.78;;;;;;;;;;5077970;28;20650;-42
2021/08/26 12:50:26;;;;;;;5.40;2.95;;;;;;;;;;5075013;28;20072;-40
2021/08/26 12:52:51;;;;;;;6.40;3.17;;;;;;;;;;5078747;28;20144;-37
2021/08/26 12:55:16;;;;;;;10.57;3.72;;;;;;;;;;5072293;28;20543;-39
2021/08/26 12:57:42;;;;;;;5.47;2.65;;;;;;;;;;5075947;28;20549;-42
2021/08/26 13:00:09;;;;;;;7.93;2.85;;;;;;;;;;5074817;28;20112;-41
2021/08/26 13:02:49;;;;;;;7.50;2.60;;;;;;;;;;5071887;28;20029;-40
2021/08/26 13:05:14;;;;;;;3.65;2.28;;;;;;;;;;5075041;28;20076;-40
2021/08/26 13:07:40;;;;;;;8.43;1.95;;;;;;;;;;5071187;28;20072;-42
2021/08/26 13:10:06;;;;;;;4.15;2.45;;;;;;;;;;5079275;28;20067;-39
2021/08/26 13:12:31;;;;;;;8.38;2.95;;;;;;;;;;5073883;28;20381;-41
2021/08/26 13:14:57;;;;;;;6.43;4.38;;;;;;;;;;5074239;28;20534;-38
2021/08/26 13:17:25;;;;;;;5.25;2.58;;;;;;;;;;5079461;28;20446;-39
2021/08/26 13:20:00;;;;;;;3.45;2.05;;;;;;;;;;5072141;28;20066;-40
2021/08/26 13:22:30;;;;;;;5.03;2.78;;;;;;;;;;5071736;28;20040;-41
2021/08/26 13:24:59;;;;;;;4.90;3.07;;;;;;;;;;5073639;28;20410;-39
2021/08/26 13:27:25;;;;;;;5.57;2.97;;;;;;;;;;5071850;28;20299;-39
2021/08/26 13:29:51;;;;;;;3.67;2.30;;;;;;;;;;5072662;28;20062;-39
2021/08/26 13:32:17;;;;;;;3.60;2.72;;;;;;;;;;5076236;28;20032;-40
2021/08/26 13:34:43;;;;;;;4.05;2.45;;;;;;;;;;5072216;28;20140;-39
2021/08/26 13:37:08;;;;;;;10.70;3.15;;;;;;;;;;5075786;28;20111;-38
2021/08/26 13:39:33;;;;;;;6.13;3.05;;;;;;;;;;5075183;28;20028;-37
2021/08/26 13:41:59;;;;;;;8.30;3.05;;;;;;;;;;5074513;28;20085;-38
2021/08/26 13:44:24;;;;;;;2.78;2.28;;;;;;;;;;5077506;28;20012;-41
2021/08/26 13:46:50;;;;;;;5.78;3.10;;;;;;;;;;5074512;28;20077;-39
2021/08/26 13:49:15;;;;;;;5.75;3.25;;;;;;;;;;5072737;28;20495;-41
2021/08/26 13:51:42;;;;;;;13.52;2.97;;;;;;;;;;5076496;28;20442;-42
2021/08/26 13:54:08;;;;;;;5.68;3.33;;;;;;;;;;5073286;28;20027;-39
2021/08/26 13:56:33;;;;;;;8.52;3.30;;;;;;;;;;5076418;28;20394;-40
2021/08/26 13:58:58;;;;;;;6.38;2.45;;;;;;;;;;5074775;28;20021;-40
2021/08/26 14:01:24;;;;;;;6.63;2.25;;;;;;;;;;5073058;28;20047;-38
2021/08/26 14:03:49;;;;;;;10.88;2.90;;;;;;;;;;5072941;28;20070;-39
2021/08/26 14:06:14;;;;;;;2.63;2.30;;;;;;;;;;5072037;28;20459;-41
2021/08/26 14:08:40;;;;;;;15.85;10.02;;;;;;;;;;5073278;28;20048;-40
2021/08/26 14:11:05;;;;;;;4.72;2.50;;;;;;;;;;5072493;28;20582;-36
2021/08/26 14:13:31;;;;;;;6.03;3.22;;;;;;;;;;5072662;28;20036;-42
2021/08/26 14:15:56;;;;;;;11.73;2.55;;;;;;;;;;5072923;28;20704;-41
2021/08/26 14:18:21;;;;;;;7.28;2.85;;;;;;;;;;5072828;28;20044;-40
2021/08/26 14:20:47;;;;;;;3.40;2.42;;;;;;;;;;5070390;28;20100;-40
2021/08/26 14:23:12;;;;;;;6.20;3.08;;;;;;;;;;5075261;28;20021;-39
2021/08/26 14:25:38;;;;;;;3.22;2.38;;;;;;;;;;5074259;28;20533;-42
2021/08/26 14:28:03;;;;;;;10.20;3.30;;;;;;;;;;5074673;28;20019;-41
2021/08/26 14:30:29;;;;;;;4.72;3.22;;;;;;;;;;5073533;28;20103;-41
2021/08/26 14:32:54;;;;;;;10.60;3.05;;;;;;;;;;5074773;28;20013;-42
2021/08/26 14:35:19;;;;;;;5.78;3.28;;;;;;;;;;5075633;28;20651;-43
2021/08/26 14:37:45;;;;;;;6.68;3.53;;;;;;;;;;5069731;28;20028;-43
2021/08/26 14:40:10;;;;;;;3.03;2.40;;;;;;;;;;5071290;28;20383;-41
2021/08/26 14:42:36;;;;;;;6.03;3.10;;;;;;;;;;5069433;28;20523;-39